Pagrindinis puslapis
METAR-TAF:

METAR-TAF

Oro uostai :

Belo Horizontė, Minas Žeraisas, Brazilija

platuma: 19-51S, ilguma: 043-57W, Aukštis: 785 m

Dabartinis oras

Ataskaita buvo paskelbta 1 valandą ir 8 minutes, ne 20:00 UTC
Vėjas 3 kt iš Rytų/Šiaurės Rytų
Temperatūra 20°C
Drėgmė 94%
Slėgis 1013 hPa
Matomumas: 6000 m
Su prošvaistėmis ne aukštis 2000 ft
Mažai debesys ne aukštis 3500 ft, Liūtiniai kamuoliniai debesys.
Su prošvaistėmis ne aukštis 10000 ft
perkūnija, lietus

METAR: SBBH 122000Z 07003KT 6000 -TSRA BKN020 FEW035CB BKN100 20/19 Q1013

Laikas: 18:08 (21:08 UTC)


TAF: trūkstamas

Orai ataskaitas ir orų prognozės (METAR, TAF).

turimą stotys yra geltonos ir raudonos taškus žemėlapyje.

Perkelti pele per norėdami pamatyti stoties vardą.

Tada spustelėkite, norėdami matyti oro stebėjimo ir prognozės.

Norėdami pakeisti žemėlapį: spustelėkite ant žalios mygtukų su juodo kryžiaus žemyn,; žalią mygtuką su brūkšneliu, jei norite nutolinti; arba žalių rodyklių gretimoms žemėlapius.


METAR-TAF: